createdAt,value
2022-12-31T00:01:51.487Z,74.25
2022-12-31T00:04:18.480Z,74.25
2022-12-31T00:06:46.151Z,74.30
2022-12-31T00:09:13.125Z,74.34
2022-12-31T00:11:40.297Z,74.32
2022-12-31T00:14:07.258Z,74.33
2022-12-31T00:16:37.763Z,74.42
2022-12-31T00:19:08.112Z,74.32
2022-12-31T00:21:35.695Z,74.24
2022-12-31T00:24:03.670Z,74.17
2022-12-31T00:26:33.097Z,74.07
2022-12-31T00:29:01.427Z,74.07
2022-12-31T00:31:35.442Z,74.06
2022-12-31T00:34:02.875Z,74.03
2022-12-31T00:36:32.573Z,74.00
2022-12-31T00:39:00.805Z,73.99
2022-12-31T00:41:28.671Z,73.92
2022-12-31T00:43:55.995Z,73.92
2022-12-31T00:46:23.556Z,73.91
2022-12-31T00:48:50.472Z,73.94
2022-12-31T00:51:19.842Z,73.95
2022-12-31T00:53:46.872Z,73.83
2022-12-31T00:56:19.196Z,73.76
2022-12-31T00:58:46.619Z,73.75
2022-12-31T01:01:17.769Z,73.74
2022-12-31T01:03:45.183Z,73.72
2022-12-31T01:06:12.019Z,73.74
2022-12-31T01:08:38.876Z,73.75
2022-12-31T01:11:24.426Z,73.74
2022-12-31T01:13:51.269Z,73.70
2022-12-31T01:16:20.922Z,73.71
2022-12-31T01:18:48.490Z,73.74
2022-12-31T01:21:15.564Z,73.75
2022-12-31T01:23:42.700Z,73.77
2022-12-31T01:26:11.581Z,73.83
2022-12-31T01:28:38.504Z,73.87
2022-12-31T01:31:07.824Z,73.86
2022-12-31T01:33:34.952Z,73.86
2022-12-31T01:36:04.161Z,73.87
2022-12-31T01:38:31.164Z,73.87
2022-12-31T01:40:57.991Z,73.81
2022-12-31T01:43:42.254Z,73.79
2022-12-31T01:46:11.735Z,73.79
2022-12-31T01:48:38.742Z,73.76
2022-12-31T01:51:09.222Z,73.74
2022-12-31T01:53:40.729Z,73.74
2022-12-31T01:56:07.987Z,73.71
2022-12-31T01:58:43.279Z,73.76
2022-12-31T02:01:15.411Z,73.76
2022-12-31T02:03:42.919Z,73.73
2022-12-31T02:06:25.719Z,73.70
2022-12-31T02:08:52.512Z,73.70
2022-12-31T02:11:31.329Z,73.67
2022-12-31T02:14:02.423Z,73.64
2022-12-31T02:16:54.620Z,73.66
2022-12-31T02:19:59.086Z,73.71
2022-12-31T02:22:44.229Z,73.72
2022-12-31T02:25:14.258Z,73.72
2022-12-31T02:27:53.319Z,73.70
2022-12-31T02:30:23.363Z,73.75
2022-12-31T02:33:27.762Z,73.81
2022-12-31T02:36:05.588Z,73.80
2022-12-31T02:38:40.870Z,73.81
2022-12-31T02:41:36.713Z,73.78
2022-12-31T02:44:30.154Z,73.77
2022-12-31T02:47:09.083Z,73.78
2022-12-31T02:50:29.905Z,73.79
2022-12-31T02:53:08.683Z,73.75
2022-12-31T02:55:45.023Z,73.73
2022-12-31T02:58:56.556Z,73.70
2022-12-31T03:01:51.311Z,73.64
2022-12-31T03:04:35.126Z,73.72
2022-12-31T03:07:14.999Z,73.77
2022-12-31T03:09:41.834Z,73.86
2022-12-31T03:12:29.449Z,73.89
2022-12-31T03:14:56.340Z,73.98
2022-12-31T03:17:24.003Z,73.99
2022-12-31T03:20:09.581Z,74.02
2022-12-31T03:22:40.274Z,74.00
2022-12-31T03:25:35.555Z,74.06
2022-12-31T03:28:11.410Z,74.12
2022-12-31T03:30:40.563Z,74.23
2022-12-31T03:33:08.388Z,74.28
2022-12-31T03:35:37.236Z,74.29
2022-12-31T03:38:04.406Z,74.36
2022-12-31T03:40:32.350Z,74.42
2022-12-31T03:42:59.209Z,74.41
2022-12-31T03:45:26.101Z,74.47
2022-12-31T03:47:52.973Z,74.45
2022-12-31T03:50:20.443Z,74.48
2022-12-31T03:52:47.278Z,74.53
2022-12-31T03:55:14.811Z,74.55
2022-12-31T03:57:41.883Z,74.60
2022-12-31T04:00:12.115Z,74.59
2022-12-31T04:02:39.083Z,74.66
2022-12-31T04:05:06.862Z,74.67
2022-12-31T04:07:33.695Z,74.71
2022-12-31T04:10:00.527Z,74.73
2022-12-31T04:12:27.350Z,74.81
2022-12-31T04:14:54.183Z,74.85
2022-12-31T04:17:21.127Z,74.87
2022-12-31T04:19:47.967Z,74.81
2022-12-31T04:22:14.880Z,74.79
2022-12-31T04:24:43.128Z,74.79
2022-12-31T04:27:11.435Z,74.91
2022-12-31T04:29:38.498Z,74.82
2022-12-31T04:32:06.601Z,74.94
2022-12-31T04:34:33.949Z,74.87
2022-12-31T04:37:01.439Z,74.90
2022-12-31T04:39:28.488Z,74.84
2022-12-31T04:41:55.418Z,74.90
2022-12-31T04:44:22.371Z,74.93
2022-12-31T04:46:49.296Z,74.96
2022-12-31T04:49:16.115Z,74.94
2022-12-31T04:51:42.894Z,74.84
2022-12-31T04:54:09.735Z,75.04
2022-12-31T04:56:36.892Z,75.02
2022-12-31T04:59:04.828Z,75.12
2022-12-31T05:01:33.048Z,75.16
2022-12-31T05:04:00.279Z,75.16
2022-12-31T05:06:27.171Z,75.17
2022-12-31T05:08:54.305Z,75.21
2022-12-31T05:11:21.216Z,75.23
2022-12-31T05:13:48.192Z,75.26
2022-12-31T05:16:15.080Z,75.17
2022-12-31T05:18:41.954Z,75.25
2022-12-31T05:21:08.823Z,75.30
2022-12-31T05:23:35.648Z,75.10
2022-12-31T05:26:02.569Z,75.31
2022-12-31T05:28:29.480Z,75.18
2022-12-31T05:30:57.069Z,75.24
2022-12-31T05:33:23.859Z,75.25
2022-12-31T05:35:50.718Z,75.34
2022-12-31T05:38:17.794Z,75.26
2022-12-31T05:40:44.734Z,75.23
2022-12-31T05:43:11.551Z,75.20
2022-12-31T05:45:38.580Z,75.11
2022-12-31T05:48:06.236Z,75.14
2022-12-31T05:50:33.163Z,75.02
2022-12-31T05:52:59.989Z,75.02
2022-12-31T05:55:26.790Z,75.07
2022-12-31T05:57:53.620Z,74.94
2022-12-31T06:00:20.494Z,75.01
2022-12-31T06:02:47.304Z,75.09
2022-12-31T06:05:14.151Z,75.08
2022-12-31T06:07:40.957Z,75.10
2022-12-31T06:10:08.290Z,75.18
2022-12-31T06:12:35.654Z,75.26
2022-12-31T06:15:02.886Z,75.16
2022-12-31T06:17:30.289Z,75.13
2022-12-31T06:19:57.218Z,75.04
2022-12-31T06:22:24.094Z,75.05
2022-12-31T06:24:50.890Z,75.00
2022-12-31T06:27:17.925Z,74.90
2022-12-31T06:29:45.829Z,74.91
2022-12-31T06:32:12.691Z,74.82
2022-12-31T06:34:39.514Z,74.80
2022-12-31T06:37:06.390Z,74.79
2022-12-31T06:39:33.191Z,74.81
2022-12-31T06:41:59.985Z,74.76
2022-12-31T06:44:26.833Z,74.67
2022-12-31T06:46:53.701Z,74.63
2022-12-31T06:49:20.662Z,74.58
2022-12-31T06:51:47.901Z,74.53
2022-12-31T06:54:14.759Z,74.46
2022-12-31T06:56:42.179Z,74.41
2022-12-31T06:59:25.241Z,74.41
2022-12-31T07:02:07.655Z,74.25
2022-12-31T07:04:49.776Z,74.19
2022-12-31T07:07:40.524Z,74.17
2022-12-31T07:10:30.010Z,74.15
2022-12-31T07:13:32.903Z,74.20
2022-12-31T07:16:34.019Z,74.12
2022-12-31T07:19:34.603Z,74.10
2022-12-31T07:22:02.965Z,74.03
2022-12-31T07:24:30.044Z,73.98
2022-12-31T07:27:06.097Z,73.88
2022-12-31T07:29:47.614Z,73.69
2022-12-31T07:32:33.418Z,73.66
2022-12-31T07:35:10.942Z,73.59
2022-12-31T07:37:52.288Z,73.58
2022-12-31T07:40:35.043Z,73.49
2022-12-31T07:43:13.596Z,73.36
2022-12-31T07:46:13.649Z,73.24
2022-12-31T07:48:40.690Z,73.14
2022-12-31T07:51:10.722Z,73.03
2022-12-31T07:53:37.735Z,72.91
2022-12-31T07:56:07.100Z,72.92
2022-12-31T07:58:39.868Z,72.87
2022-12-31T08:01:16.924Z,72.75
2022-12-31T08:04:03.959Z,72.70
2022-12-31T08:07:03.451Z,72.82
2022-12-31T08:10:18.455Z,72.62
2022-12-31T08:12:49.681Z,72.50
2022-12-31T08:15:18.798Z,72.42
2022-12-31T08:17:46.143Z,72.40
2022-12-31T08:20:19.562Z,72.29
2022-12-31T08:23:13.960Z,72.16
2022-12-31T08:25:43.471Z,72.01
2022-12-31T08:28:32.277Z,72.09
2022-12-31T08:31:08.713Z,72.02
2022-12-31T08:33:44.844Z,71.89
2022-12-31T08:36:18.495Z,71.85
2022-12-31T08:39:23.370Z,71.92
2022-12-31T08:41:53.774Z,71.89
2022-12-31T08:44:42.273Z,71.86
2022-12-31T08:47:37.031Z,71.86
2022-12-31T08:50:05.776Z,71.77
2022-12-31T08:52:32.773Z,71.73
2022-12-31T08:54:59.852Z,71.67
2022-12-31T08:58:17.536Z,71.58
2022-12-31T09:00:45.774Z,71.55
2022-12-31T09:03:18.704Z,71.58
2022-12-31T09:06:05.859Z,71.55
2022-12-31T09:08:39.594Z,71.45
2022-12-31T09:11:14.286Z,71.38
2022-12-31T09:13:52.551Z,71.23
2022-12-31T09:16:59.143Z,71.18
2022-12-31T09:19:26.039Z,71.19
2022-12-31T09:21:53.138Z,71.05
2022-12-31T09:24:20.184Z,70.97
2022-12-31T09:27:25.575Z,71.03
2022-12-31T09:30:07.578Z,70.91
2022-12-31T09:32:46.281Z,70.85
2022-12-31T09:35:28.304Z,70.86
2022-12-31T09:38:05.277Z,70.96
2022-12-31T09:40:45.066Z,70.94
2022-12-31T09:43:33.615Z,71.00
2022-12-31T09:46:37.820Z,70.97
2022-12-31T09:49:22.925Z,70.87
2022-12-31T09:51:58.282Z,70.79
2022-12-31T09:55:02.811Z,70.68
2022-12-31T09:57:36.638Z,70.58
2022-12-31T10:00:12.233Z,70.49
2022-12-31T10:02:56.576Z,70.44
2022-12-31T10:05:55.833Z,70.35
2022-12-31T10:08:47.955Z,70.30
2022-12-31T10:11:27.054Z,70.19
2022-12-31T10:14:03.100Z,70.06
2022-12-31T10:17:08.441Z,69.99
2022-12-31T10:19:43.995Z,69.99
2022-12-31T10:22:22.774Z,69.71
2022-12-31T10:25:16.744Z,69.64
2022-12-31T10:28:05.647Z,69.62
2022-12-31T10:30:35.611Z,69.69
2022-12-31T10:33:25.607Z,69.70
2022-12-31T10:36:13.464Z,69.67
2022-12-31T10:39:07.360Z,69.63
2022-12-31T10:42:19.713Z,69.72
2022-12-31T10:45:01.562Z,69.75
2022-12-31T10:47:28.272Z,69.78
2022-12-31T10:50:10.219Z,69.76
2022-12-31T10:53:09.356Z,69.71
2022-12-31T10:56:15.260Z,69.72
2022-12-31T10:58:47.707Z,69.68
2022-12-31T11:01:30.725Z,69.63
2022-12-31T11:04:41.386Z,69.64
2022-12-31T11:07:23.100Z,69.67
2022-12-31T11:09:52.772Z,69.53
2022-12-31T11:12:33.865Z,69.48
2022-12-31T11:15:37.260Z,69.30
2022-12-31T11:18:41.560Z,69.29
2022-12-31T11:21:28.293Z,69.29
2022-12-31T11:24:19.355Z,69.15
2022-12-31T11:27:08.426Z,69.11
2022-12-31T11:29:52.936Z,69.11
2022-12-31T11:32:25.534Z,68.98
2022-12-31T11:35:13.686Z,68.96
2022-12-31T11:37:48.325Z,68.91
2022-12-31T11:40:36.274Z,68.89
2022-12-31T11:43:28.138Z,68.88
2022-12-31T11:46:16.907Z,68.79
2022-12-31T11:48:52.738Z,68.68
2022-12-31T11:51:19.658Z,68.60
2022-12-31T11:54:13.525Z,68.64
2022-12-31T11:56:59.402Z,68.67
2022-12-31T11:59:26.189Z,68.59
2022-12-31T12:02:04.344Z,68.62
2022-12-31T12:04:31.620Z,68.59
2022-12-31T12:06:58.595Z,68.53
2022-12-31T12:09:34.555Z,68.34
2022-12-31T12:12:05.163Z,68.18
2022-12-31T12:14:42.545Z,68.10
2022-12-31T12:17:31.929Z,67.96
2022-12-31T12:20:26.244Z,67.89
2022-12-31T12:22:56.278Z,68.00
2022-12-31T12:25:25.785Z,68.07
2022-12-31T12:27:52.710Z,68.08
2022-12-31T12:30:23.797Z,68.09
2022-12-31T12:33:00.231Z,68.03
2022-12-31T12:35:33.081Z,68.00
2022-12-31T12:38:01.407Z,67.93
2022-12-31T12:40:33.658Z,67.80
2022-12-31T12:43:02.524Z,67.75
2022-12-31T12:45:42.122Z,67.74
2022-12-31T12:48:21.868Z,67.81
2022-12-31T12:50:49.827Z,67.97
2022-12-31T12:53:45.553Z,68.09
2022-12-31T12:56:26.006Z,68.19
2022-12-31T12:58:58.612Z,68.31
2022-12-31T13:01:40.381Z,68.28
2022-12-31T13:04:35.589Z,68.29
2022-12-31T13:07:08.692Z,68.21
2022-12-31T13:09:41.333Z,68.29
2022-12-31T13:13:13.865Z,68.35
2022-12-31T13:16:01.265Z,68.38
2022-12-31T13:18:37.254Z,68.48
2022-12-31T13:21:39.680Z,68.50
2022-12-31T13:24:15.512Z,68.51
2022-12-31T13:26:58.929Z,68.54
2022-12-31T13:29:31.567Z,68.53
2022-12-31T13:32:02.614Z,68.54
2022-12-31T13:34:33.755Z,68.61
2022-12-31T13:37:14.698Z,68.69
2022-12-31T13:39:45.005Z,68.71
2022-12-31T13:42:25.675Z,68.80
2022-12-31T13:45:02.495Z,68.81
2022-12-31T13:47:38.096Z,68.74
2022-12-31T13:50:23.761Z,68.67
2022-12-31T13:53:15.022Z,68.69
2022-12-31T13:55:46.365Z,68.72
2022-12-31T13:58:22.179Z,68.79
2022-12-31T14:01:12.337Z,68.74
2022-12-31T14:03:51.156Z,68.58
2022-12-31T14:06:32.751Z,68.53
2022-12-31T14:08:59.967Z,68.51
2022-12-31T14:11:59.140Z,68.47
2022-12-31T14:14:44.299Z,68.35
2022-12-31T14:17:39.823Z,68.17
2022-12-31T14:20:29.481Z,67.81
2022-12-31T14:23:29.037Z,67.78
2022-12-31T14:26:01.250Z,67.71
2022-12-31T14:28:35.664Z,67.64
2022-12-31T14:31:28.801Z,67.73
2022-12-31T14:34:08.386Z,67.62
2022-12-31T14:37:01.216Z,67.64
2022-12-31T14:39:56.302Z,67.52
2022-12-31T14:42:50.899Z,67.55
2022-12-31T14:45:23.619Z,67.67
2022-12-31T14:48:05.058Z,67.78
2022-12-31T14:50:34.690Z,67.79
2022-12-31T14:53:06.346Z,67.84
2022-12-31T14:55:34.520Z,67.88
2022-12-31T15:00:53.013Z,67.76
2022-12-31T15:03:19.837Z,67.77
2022-12-31T15:06:17.716Z,67.70
2022-12-31T15:09:08.203Z,67.43
2022-12-31T15:12:03.384Z,67.29
2022-12-31T15:15:08.607Z,67.19
2022-12-31T15:17:47.143Z,66.81
2022-12-31T15:20:26.125Z,66.74
2022-12-31T15:22:54.170Z,66.77
2022-12-31T15:25:40.430Z,66.78
2022-12-31T15:28:38.553Z,66.60
2022-12-31T15:31:19.370Z,66.50
2022-12-31T15:34:24.862Z,66.29
2022-12-31T15:36:54.400Z,66.24
2022-12-31T15:39:35.882Z,66.17
2022-12-31T15:42:36.825Z,66.11
2022-12-31T15:44:55.370Z,66.16
2022-12-31T15:47:32.810Z,66.10
2022-12-31T15:50:04.118Z,66.10
2022-12-31T15:52:41.803Z,66.05
2022-12-31T15:55:21.447Z,65.94
2022-12-31T15:57:50.469Z,65.88
2022-12-31T16:00:22.931Z,65.83
2022-12-31T16:02:54.296Z,65.87
2022-12-31T16:05:27.160Z,65.94
2022-12-31T16:07:56.522Z,65.96
2022-12-31T16:10:30.228Z,66.15
2022-12-31T16:12:58.745Z,65.96
2022-12-31T16:15:31.557Z,65.94
2022-12-31T16:18:20.756Z,65.90
2022-12-31T16:20:51.803Z,65.90
2022-12-31T16:23:23.384Z,65.87
2022-12-31T16:25:53.104Z,65.77
2022-12-31T16:28:24.322Z,65.68
2022-12-31T16:31:01.851Z,65.67
2022-12-31T16:33:30.588Z,65.61
2022-12-31T16:35:59.438Z,65.62
2022-12-31T16:38:37.138Z,65.64
2022-12-31T16:41:03.903Z,65.53
2022-12-31T16:43:35.741Z,65.39
2022-12-31T16:46:25.636Z,65.23
2022-12-31T16:48:59.678Z,65.12
2022-12-31T16:51:30.561Z,64.99
2022-12-31T16:53:58.608Z,64.90
2022-12-31T16:56:38.274Z,64.81
2022-12-31T16:59:16.659Z,64.72
2022-12-31T17:01:44.562Z,64.64
2022-12-31T17:04:16.795Z,64.50
2022-12-31T17:06:44.113Z,64.53
2022-12-31T17:09:33.533Z,64.55
2022-12-31T17:12:16.692Z,64.55
2022-12-31T17:14:49.789Z,64.43
2022-12-31T17:17:24.059Z,64.57
2022-12-31T17:19:57.136Z,64.65
2022-12-31T17:22:36.517Z,64.58
2022-12-31T17:25:23.974Z,64.67
2022-12-31T17:28:06.958Z,65.17
2022-12-31T17:30:34.659Z,65.34
2022-12-31T17:33:03.752Z,65.44
2022-12-31T17:35:36.946Z,65.65
2022-12-31T17:38:36.290Z,65.72
2022-12-31T17:41:06.082Z,65.58
2022-12-31T17:43:35.792Z,65.65
2022-12-31T17:46:08.431Z,65.64
2022-12-31T17:48:36.958Z,65.73
2022-12-31T17:51:05.001Z,65.82
2022-12-31T17:53:31.920Z,65.72
2022-12-31T17:56:03.088Z,65.74
2022-12-31T17:58:33.424Z,65.80
2022-12-31T18:01:00.752Z,65.77
2022-12-31T18:03:28.111Z,65.84
2022-12-31T18:05:54.984Z,65.88
2022-12-31T18:08:21.852Z,65.85
2022-12-31T18:10:48.929Z,65.71
2022-12-31T18:13:21.177Z,65.66
2022-12-31T18:15:48.156Z,65.60
2022-12-31T18:18:30.692Z,65.61
2022-12-31T18:21:03.157Z,65.72
2022-12-31T18:23:40.643Z,65.52
2022-12-31T18:26:09.783Z,65.32
2022-12-31T18:28:36.578Z,65.25
2022-12-31T18:31:03.479Z,65.16
2022-12-31T18:33:30.300Z,65.14
2022-12-31T18:36:08.617Z,64.99
2022-12-31T18:38:35.852Z,65.00
2022-12-31T18:41:02.738Z,65.10
2022-12-31T18:43:29.551Z,65.01
2022-12-31T18:45:56.371Z,65.03
2022-12-31T18:48:23.205Z,65.01
2022-12-31T18:50:50.591Z,65.02
2022-12-31T18:53:20.675Z,64.93
2022-12-31T18:55:54.732Z,64.97
2022-12-31T18:58:22.221Z,65.05
2022-12-31T19:00:51.391Z,65.06
2022-12-31T19:03:24.170Z,65.03
2022-12-31T19:05:52.000Z,65.06
2022-12-31T19:08:20.665Z,65.01
2022-12-31T19:10:49.431Z,64.91
2022-12-31T19:13:18.462Z,64.77
2022-12-31T19:15:50.918Z,64.71
2022-12-31T19:18:18.151Z,64.52
2022-12-31T19:20:45.208Z,64.56
2022-12-31T19:23:17.812Z,64.48
2022-12-31T19:25:45.793Z,64.57
2022-12-31T19:28:21.271Z,64.56
2022-12-31T19:30:48.356Z,64.51
2022-12-31T19:33:16.435Z,64.40
2022-12-31T19:35:43.767Z,64.38
2022-12-31T19:38:25.401Z,64.37
2022-12-31T19:40:53.565Z,64.35
2022-12-31T19:43:22.918Z,64.29
2022-12-31T19:45:50.783Z,64.44
2022-12-31T19:48:30.502Z,64.56
2022-12-31T19:50:59.537Z,64.52
2022-12-31T19:53:27.743Z,64.57
2022-12-31T19:55:54.825Z,64.59
2022-12-31T19:58:26.483Z,64.61
2022-12-31T20:01:01.266Z,64.63
2022-12-31T20:03:29.535Z,64.61
2022-12-31T20:06:08.601Z,64.69
2022-12-31T20:08:37.228Z,64.80
2022-12-31T20:11:09.295Z,64.74
2022-12-31T20:13:37.333Z,64.83
2022-12-31T20:16:07.296Z,64.84
2022-12-31T20:18:35.814Z,64.95
2022-12-31T20:21:02.813Z,64.87
2022-12-31T20:23:33.576Z,64.84
2022-12-31T20:26:00.906Z,64.93
2022-12-31T20:28:27.841Z,65.02
2022-12-31T20:30:54.724Z,65.04
2022-12-31T20:33:22.506Z,65.08
2022-12-31T20:35:49.731Z,65.17
2022-12-31T20:38:16.606Z,65.17
2022-12-31T20:40:46.979Z,65.17
2022-12-31T20:43:14.335Z,65.15
2022-12-31T20:45:41.780Z,65.14
2022-12-31T20:48:08.705Z,65.22
2022-12-31T20:50:35.636Z,65.20
2022-12-31T20:53:02.597Z,65.22
2022-12-31T20:55:30.866Z,65.25
2022-12-31T20:57:57.724Z,65.34
2022-12-31T21:00:24.597Z,65.57
2022-12-31T21:02:59.029Z,65.42
2022-12-31T21:05:33.645Z,65.34
2022-12-31T21:08:00.646Z,65.36
2022-12-31T21:10:27.467Z,65.29
2022-12-31T21:12:54.265Z,65.32
2022-12-31T21:15:21.812Z,65.33
2022-12-31T21:17:48.675Z,65.31
2022-12-31T21:20:15.642Z,65.29
2022-12-31T21:22:42.486Z,65.44
2022-12-31T21:25:10.618Z,65.28
2022-12-31T21:27:37.502Z,65.22
2022-12-31T21:30:20.369Z,65.35
2022-12-31T21:32:47.802Z,65.30
2022-12-31T21:35:42.383Z,65.32
2022-12-31T21:38:02.312Z,65.22
2022-12-31T21:40:30.333Z,65.32
2022-12-31T21:42:57.316Z,65.28
2022-12-31T21:45:24.939Z,65.40
2022-12-31T21:48:10.240Z,65.46
2022-12-31T21:50:37.158Z,65.50
2022-12-31T21:53:03.957Z,65.57
2022-12-31T21:55:49.635Z,65.66
2022-12-31T21:58:26.334Z,65.74
2022-12-31T22:01:12.658Z,65.78
2022-12-31T22:03:39.818Z,65.75
2022-12-31T22:06:12.522Z,65.66
2022-12-31T22:08:40.874Z,65.74
2022-12-31T22:11:08.586Z,65.67
2022-12-31T22:13:36.328Z,65.81
2022-12-31T22:16:05.758Z,65.62
2022-12-31T22:18:39.092Z,65.66
2022-12-31T22:21:17.751Z,65.69
2022-12-31T22:23:46.535Z,65.82
2022-12-31T22:26:16.375Z,65.89
2022-12-31T22:28:44.491Z,65.84
2022-12-31T22:31:16.892Z,65.96
2022-12-31T22:33:44.511Z,65.72
2022-12-31T22:36:14.286Z,65.85
2022-12-31T22:38:41.233Z,65.98
2022-12-31T22:41:10.025Z,66.06
2022-12-31T22:43:39.628Z,66.04
2022-12-31T22:46:08.954Z,66.05
2022-12-31T22:48:36.224Z,65.99
2022-12-31T22:51:03.414Z,66.02
2022-12-31T22:53:30.202Z,65.90
2022-12-31T22:55:56.996Z,65.79
2022-12-31T22:58:24.651Z,65.78
2022-12-31T23:00:52.158Z,65.85
2022-12-31T23:03:19.184Z,65.68
2022-12-31T23:05:51.642Z,65.68
2022-12-31T23:08:23.100Z,65.71
2022-12-31T23:11:06.063Z,65.70
2022-12-31T23:14:00.514Z,65.65
2022-12-31T23:16:48.631Z,65.50
2022-12-31T23:19:34.900Z,65.63
2022-12-31T23:22:20.408Z,65.60
2022-12-31T23:24:47.208Z,65.56
2022-12-31T23:27:14.008Z,65.52
2022-12-31T23:29:46.496Z,65.65
2022-12-31T23:32:16.322Z,65.62
2022-12-31T23:34:44.950Z,65.52
2022-12-31T23:37:12.917Z,65.50
2022-12-31T23:39:40.459Z,65.49
2022-12-31T23:42:07.401Z,65.45
2022-12-31T23:44:34.187Z,65.38
2022-12-31T23:47:01.102Z,65.46
2022-12-31T23:49:27.996Z,65.44
2022-12-31T23:51:54.839Z,65.37
2022-12-31T23:54:21.693Z,65.51
2022-12-31T23:56:49.118Z,65.51
2022-12-31T23:59:15.914Z,65.56
